sensor_id;sensor_type;location;lat;lon;timestamp;P1;durP1;ratioP1;P2;durP2;ratioP2
20076;SDS011;12348;42.710;23.378;2024-02-23T00:00:06;2.83;;;1.70;;
20076;SDS011;12348;42.710;23.378;2024-02-23T00:02:36;2.80;;;1.80;;
20076;SDS011;12348;42.710;23.378;2024-02-23T00:05:03;3.47;;;2.43;;
20076;SDS011;12348;42.710;23.378;2024-02-23T00:07:31;16.70;;;7.20;;
20076;SDS011;12348;42.710;23.378;2024-02-23T00:09:58;6.57;;;3.73;;
20076;SDS011;12348;42.710;23.378;2024-02-23T00:12:25;2.43;;;1.90;;
20076;SDS011;12348;42.710;23.378;2024-02-23T00:14:52;1.73;;;1.63;;
20076;SDS011;12348;42.710;23.378;2024-02-23T00:17:18;3.63;;;3.30;;
20076;SDS011;12348;42.710;23.378;2024-02-23T00:19:45;2.40;;;2.20;;
20076;SDS011;12348;42.710;23.378;2024-02-23T00:22:12;2.80;;;1.93;;
20076;SDS011;12348;42.710;23.378;2024-02-23T00:24:40;1.63;;;1.23;;
20076;SDS011;12348;42.710;23.378;2024-02-23T00:27:07;3.17;;;2.23;;
20076;SDS011;12348;42.710;23.378;2024-02-23T00:29:34;3.33;;;2.60;;
20076;SDS011;12348;42.710;23.378;2024-02-23T00:32:01;2.87;;;2.63;;
20076;SDS011;12348;42.710;23.378;2024-02-23T00:34:28;1.80;;;1.67;;
20076;SDS011;12348;42.710;23.378;2024-02-23T00:37:01;1.97;;;1.37;;
20076;SDS011;12348;42.710;23.378;2024-02-23T00:39:33;1.73;;;1.57;;
20076;SDS011;12348;42.710;23.378;2024-02-23T00:42:15;1.73;;;1.63;;
20076;SDS011;12348;42.710;23.378;2024-02-23T00:44:47;1.60;;;1.50;;
20076;SDS011;12348;42.710;23.378;2024-02-23T00:47:27;5.20;;;2.50;;
20076;SDS011;12348;42.710;23.378;2024-02-23T00:49:55;3.50;;;1.60;;
20076;SDS011;12348;42.710;23.378;2024-02-23T00:52:23;3.27;;;3.07;;
20076;SDS011;12348;42.710;23.378;2024-02-23T00:54:50;3.07;;;2.63;;
20076;SDS011;12348;42.710;23.378;2024-02-23T00:57:18;3.43;;;1.83;;
20076;SDS011;12348;42.710;23.378;2024-02-23T00:59:52;3.97;;;2.53;;
20076;SDS011;12348;42.710;23.378;2024-02-23T01:02:18;8.37;;;3.73;;
20076;SDS011;12348;42.710;23.378;2024-02-23T01:04:45;5.73;;;2.73;;
20076;SDS011;12348;42.710;23.378;2024-02-23T01:07:12;3.33;;;1.87;;
20076;SDS011;12348;42.710;23.378;2024-02-23T01:09:38;2.87;;;2.30;;
20076;SDS011;12348;42.710;23.378;2024-02-23T01:12:05;2.00;;;1.77;;
20076;SDS011;12348;42.710;23.378;2024-02-23T01:14:33;2.53;;;2.17;;
20076;SDS011;12348;42.710;23.378;2024-02-23T01:17:00;4.03;;;2.30;;
20076;SDS011;12348;42.710;23.378;2024-02-23T01:19:27;2.50;;;1.67;;
20076;SDS011;12348;42.710;23.378;2024-02-23T01:21:53;1.33;;;1.20;;
20076;SDS011;12348;42.710;23.378;2024-02-23T01:24:24;9.77;;;4.90;;
20076;SDS011;12348;42.710;23.378;2024-02-23T01:26:52;2.50;;;2.23;;
20076;SDS011;12348;42.710;23.378;2024-02-23T01:29:19;4.30;;;1.80;;
20076;SDS011;12348;42.710;23.378;2024-02-23T01:31:48;4.10;;;3.03;;
20076;SDS011;12348;42.710;23.378;2024-02-23T01:34:17;2.60;;;1.53;;
20076;SDS011;12348;42.710;23.378;2024-02-23T01:36:44;2.33;;;1.83;;
20076;SDS011;12348;42.710;23.378;2024-02-23T01:39:10;5.60;;;2.23;;
20076;SDS011;12348;42.710;23.378;2024-02-23T01:41:37;1.30;;;1.20;;
20076;SDS011;12348;42.710;23.378;2024-02-23T01:44:04;6.53;;;2.07;;
20076;SDS011;12348;42.710;23.378;2024-02-23T01:46:31;6.03;;;2.30;;
20076;SDS011;12348;42.710;23.378;2024-02-23T01:49:00;3.23;;;1.73;;
20076;SDS011;12348;42.710;23.378;2024-02-23T01:51:27;3.10;;;1.53;;
20076;SDS011;12348;42.710;23.378;2024-02-23T01:53:54;10.30;;;2.57;;
20076;SDS011;12348;42.710;23.378;2024-02-23T01:56:21;3.67;;;2.83;;
20076;SDS011;12348;42.710;23.378;2024-02-23T01:58:48;2.27;;;2.00;;
20076;SDS011;12348;42.710;23.378;2024-02-23T02:01:18;1.63;;;1.53;;
20076;SDS011;12348;42.710;23.378;2024-02-23T02:03:45;3.37;;;2.37;;
20076;SDS011;12348;42.710;23.378;2024-02-23T02:06:13;2.10;;;1.90;;
20076;SDS011;12348;42.710;23.378;2024-02-23T02:08:40;0.80;;;0.80;;
20076;SDS011;12348;42.710;23.378;2024-02-23T02:11:07;1.10;;;1.10;;
20076;SDS011;12348;42.710;23.378;2024-02-23T02:13:34;1.90;;;1.80;;
20076;SDS011;12348;42.710;23.378;2024-02-23T02:16:01;2.07;;;1.17;;
20076;SDS011;12348;42.710;23.378;2024-02-23T02:18:28;3.50;;;2.30;;
20076;SDS011;12348;42.710;23.378;2024-02-23T02:20:55;1.77;;;1.67;;
20076;SDS011;12348;42.710;23.378;2024-02-23T02:23:24;2.73;;;1.77;;
20076;SDS011;12348;42.710;23.378;2024-02-23T02:25:54;4.40;;;2.17;;
20076;SDS011;12348;42.710;23.378;2024-02-23T02:28:22;5.07;;;2.90;;
20076;SDS011;12348;42.710;23.378;2024-02-23T02:30:50;1.67;;;1.57;;
20076;SDS011;12348;42.710;23.378;2024-02-23T02:33:17;2.27;;;2.17;;
20076;SDS011;12348;42.710;23.378;2024-02-23T02:35:44;2.80;;;1.53;;
20076;SDS011;12348;42.710;23.378;2024-02-23T02:38:11;2.57;;;1.57;;
20076;SDS011;12348;42.710;23.378;2024-02-23T02:40:39;0.93;;;0.93;;
20076;SDS011;12348;42.710;23.378;2024-02-23T02:43:06;1.43;;;1.37;;
20076;SDS011;12348;42.710;23.378;2024-02-23T02:45:33;3.30;;;1.90;;
20076;SDS011;12348;42.710;23.378;2024-02-23T02:48:00;2.07;;;1.97;;
20076;SDS011;12348;42.710;23.378;2024-02-23T02:50:28;3.87;;;1.73;;
20076;SDS011;12348;42.710;23.378;2024-02-23T02:52:54;3.00;;;2.67;;
20076;SDS011;12348;42.710;23.378;2024-02-23T02:55:21;1.83;;;1.73;;
20076;SDS011;12348;42.710;23.378;2024-02-23T02:57:49;1.80;;;1.37;;
20076;SDS011;12348;42.710;23.378;2024-02-23T03:00:16;2.57;;;2.00;;
20076;SDS011;12348;42.710;23.378;2024-02-23T03:02:43;1.67;;;1.37;;
20076;SDS011;12348;42.710;23.378;2024-02-23T03:05:10;3.40;;;2.63;;
20076;SDS011;12348;42.710;23.378;2024-02-23T03:07:36;1.53;;;1.43;;
20076;SDS011;12348;42.710;23.378;2024-02-23T03:10:03;3.97;;;2.40;;
20076;SDS011;12348;42.710;23.378;2024-02-23T03:12:31;3.00;;;2.13;;
20076;SDS011;12348;42.710;23.378;2024-02-23T03:14:59;10.20;;;4.57;;
20076;SDS011;12348;42.710;23.378;2024-02-23T03:17:27;3.13;;;1.77;;
20076;SDS011;12348;42.710;23.378;2024-02-23T03:19:54;3.57;;;2.43;;
20076;SDS011;12348;42.710;23.378;2024-02-23T03:22:20;4.43;;;2.10;;
20076;SDS011;12348;42.710;23.378;2024-02-23T03:24:47;2.90;;;2.60;;
20076;SDS011;12348;42.710;23.378;2024-02-23T03:27:14;3.90;;;2.47;;
20076;SDS011;12348;42.710;23.378;2024-02-23T03:29:40;4.10;;;1.90;;
20076;SDS011;12348;42.710;23.378;2024-02-23T03:32:08;1.70;;;1.60;;
20076;SDS011;12348;42.710;23.378;2024-02-23T03:34:35;6.63;;;2.30;;
20076;SDS011;12348;42.710;23.378;2024-02-23T03:37:02;2.03;;;1.93;;
20076;SDS011;12348;42.710;23.378;2024-02-23T03:39:29;1.10;;;1.10;;
20076;SDS011;12348;42.710;23.378;2024-02-23T03:41:57;1.57;;;1.40;;
20076;SDS011;12348;42.710;23.378;2024-02-23T03:44:24;3.00;;;2.37;;
20076;SDS011;12348;42.710;23.378;2024-02-23T03:46:50;5.50;;;2.43;;
20076;SDS011;12348;42.710;23.378;2024-02-23T03:49:19;3.07;;;2.20;;
20076;SDS011;12348;42.710;23.378;2024-02-23T03:51:45;1.40;;;1.30;;
20076;SDS011;12348;42.710;23.378;2024-02-23T03:54:12;1.83;;;1.73;;
20076;SDS011;12348;42.710;23.378;2024-02-23T03:56:39;5.60;;;2.03;;
20076;SDS011;12348;42.710;23.378;2024-02-23T03:59:06;1.50;;;1.40;;
20076;SDS011;12348;42.710;23.378;2024-02-23T04:01:34;1.70;;;1.60;;
20076;SDS011;12348;42.710;23.378;2024-02-23T04:04:02;1.37;;;1.27;;
20076;SDS011;12348;42.710;23.378;2024-02-23T04:06:30;2.40;;;1.77;;
20076;SDS011;12348;42.710;23.378;2024-02-23T04:08:57;4.43;;;2.37;;
20076;SDS011;12348;42.710;23.378;2024-02-23T04:11:24;3.50;;;1.83;;
20076;SDS011;12348;42.710;23.378;2024-02-23T04:13:50;1.60;;;1.30;;
20076;SDS011;12348;42.710;23.378;2024-02-23T04:16:17;6.13;;;2.27;;
20076;SDS011;12348;42.710;23.378;2024-02-23T04:18:44;1.83;;;1.73;;
20076;SDS011;12348;42.710;23.378;2024-02-23T04:21:10;2.07;;;1.30;;
20076;SDS011;12348;42.710;23.378;2024-02-23T04:23:39;4.57;;;1.77;;
20076;SDS011;12348;42.710;23.378;2024-02-23T04:26:05;2.93;;;2.73;;
20076;SDS011;12348;42.710;23.378;2024-02-23T04:28:32;2.97;;;2.47;;
20076;SDS011;12348;42.710;23.378;2024-02-23T04:30:59;2.03;;;1.93;;
20076;SDS011;12348;42.710;23.378;2024-02-23T04:33:26;4.63;;;2.43;;
20076;SDS011;12348;42.710;23.378;2024-02-23T04:35:53;7.67;;;2.67;;
20076;SDS011;12348;42.710;23.378;2024-02-23T04:38:19;3.43;;;2.33;;
20076;SDS011;12348;42.710;23.378;2024-02-23T04:40:47;2.47;;;1.80;;
20076;SDS011;12348;42.710;23.378;2024-02-23T04:43:14;4.00;;;1.43;;
20076;SDS011;12348;42.710;23.378;2024-02-23T04:45:41;13.50;;;2.83;;
20076;SDS011;12348;42.710;23.378;2024-02-23T04:48:07;4.43;;;2.90;;
20076;SDS011;12348;42.710;23.378;2024-02-23T04:50:34;2.73;;;2.10;;
20076;SDS011;12348;42.710;23.378;2024-02-23T04:53:02;5.80;;;3.20;;
20076;SDS011;12348;42.710;23.378;2024-02-23T04:55:28;3.30;;;2.63;;
20076;SDS011;12348;42.710;23.378;2024-02-23T04:57:57;5.70;;;3.43;;
20076;SDS011;12348;42.710;23.378;2024-02-23T05:00:23;2.67;;;2.30;;
20076;SDS011;12348;42.710;23.378;2024-02-23T05:02:53;2.37;;;1.53;;
20076;SDS011;12348;42.710;23.378;2024-02-23T05:05:20;4.03;;;2.63;;
20076;SDS011;12348;42.710;23.378;2024-02-23T05:07:47;3.03;;;2.60;;
20076;SDS011;12348;42.710;23.378;2024-02-23T05:10:14;8.60;;;4.33;;
20076;SDS011;12348;42.710;23.378;2024-02-23T05:12:42;4.70;;;2.27;;
20076;SDS011;12348;42.710;23.378;2024-02-23T05:15:10;3.47;;;2.60;;
20076;SDS011;12348;42.710;23.378;2024-02-23T05:17:37;4.67;;;1.10;;
20076;SDS011;12348;42.710;23.378;2024-02-23T05:20:04;15.83;;;6.83;;
20076;SDS011;12348;42.710;23.378;2024-02-23T05:22:35;13.27;;;5.23;;
20076;SDS011;12348;42.710;23.378;2024-02-23T05:25:01;4.50;;;3.80;;
20076;SDS011;12348;42.710;23.378;2024-02-23T05:27:30;2.83;;;1.80;;
20076;SDS011;12348;42.710;23.378;2024-02-23T05:29:56;2.53;;;2.33;;
20076;SDS011;12348;42.710;23.378;2024-02-23T05:32:24;6.40;;;3.83;;
20076;SDS011;12348;42.710;23.378;2024-02-23T05:34:51;6.03;;;2.70;;
20076;SDS011;12348;42.710;23.378;2024-02-23T05:37:19;3.87;;;2.53;;
20076;SDS011;12348;42.710;23.378;2024-02-23T05:39:46;4.17;;;3.60;;
20076;SDS011;12348;42.710;23.378;2024-02-23T05:42:12;2.47;;;2.27;;
20076;SDS011;12348;42.710;23.378;2024-02-23T05:44:42;6.80;;;4.20;;
20076;SDS011;12348;42.710;23.378;2024-02-23T05:47:09;5.17;;;3.50;;
20076;SDS011;12348;42.710;23.378;2024-02-23T05:49:40;9.30;;;3.97;;
20076;SDS011;12348;42.710;23.378;2024-02-23T05:52:06;4.27;;;3.87;;
20076;SDS011;12348;42.710;23.378;2024-02-23T05:54:34;4.87;;;3.97;;
20076;SDS011;12348;42.710;23.378;2024-02-23T05:57:01;5.50;;;4.13;;
20076;SDS011;12348;42.710;23.378;2024-02-23T05:59:28;13.40;;;6.63;;
20076;SDS011;12348;42.710;23.378;2024-02-23T06:01:54;11.57;;;6.43;;
20076;SDS011;12348;42.710;23.378;2024-02-23T06:04:22;9.93;;;6.13;;
20076;SDS011;12348;42.710;23.378;2024-02-23T06:06:50;10.17;;;5.20;;
20076;SDS011;12348;42.710;23.378;2024-02-23T06:09:17;7.87;;;3.43;;
20076;SDS011;12348;42.710;23.378;2024-02-23T06:11:44;13.30;;;7.10;;
20076;SDS011;12348;42.710;23.378;2024-02-23T06:14:11;8.37;;;4.63;;
20076;SDS011;12348;42.710;23.378;2024-02-23T06:16:37;5.27;;;3.27;;
20076;SDS011;12348;42.710;23.378;2024-02-23T06:19:05;3.70;;;2.40;;
20076;SDS011;12348;42.710;23.378;2024-02-23T06:21:32;0.80;;;0.80;;
20076;SDS011;12348;42.710;23.378;2024-02-23T06:24:00;0.43;;;0.43;;
20076;SDS011;12348;42.710;23.378;2024-02-23T06:26:27;0.40;;;0.40;;
20076;SDS011;12348;42.710;23.378;2024-02-23T06:28:54;0.73;;;0.73;;
20076;SDS011;12348;42.710;23.378;2024-02-23T06:31:21;0.77;;;0.77;;
20076;SDS011;12348;42.710;23.378;2024-02-23T06:33:48;10.57;;;6.43;;
20076;SDS011;12348;42.710;23.378;2024-02-23T06:36:16;14.67;;;7.03;;
20076;SDS011;12348;42.710;23.378;2024-02-23T06:38:43;11.67;;;5.40;;
20076;SDS011;12348;42.710;23.378;2024-02-23T06:41:12;14.10;;;7.03;;
20076;SDS011;12348;42.710;23.378;2024-02-23T06:43:39;11.83;;;5.43;;
20076;SDS011;12348;42.710;23.378;2024-02-23T06:46:06;15.17;;;6.33;;
20076;SDS011;12348;42.710;23.378;2024-02-23T06:48:33;11.60;;;5.93;;
20076;SDS011;12348;42.710;23.378;2024-02-23T06:51:00;2.10;;;1.43;;
20076;SDS011;12348;42.710;23.378;2024-02-23T06:53:27;3.83;;;3.03;;
20076;SDS011;12348;42.710;23.378;2024-02-23T06:55:54;4.23;;;2.90;;
20076;SDS011;12348;42.710;23.378;2024-02-23T06:58:21;5.33;;;3.60;;
20076;SDS011;12348;42.710;23.378;2024-02-23T07:00:48;1.97;;;1.60;;
20076;SDS011;12348;42.710;23.378;2024-02-23T07:03:15;7.20;;;4.77;;
20076;SDS011;12348;42.710;23.378;2024-02-23T07:05:42;11.77;;;4.43;;
20076;SDS011;12348;42.710;23.378;2024-02-23T07:08:08;0.20;;;0.20;;
20076;SDS011;12348;42.710;23.378;2024-02-23T07:10:35;0.17;;;0.17;;
20076;SDS011;12348;42.710;23.378;2024-02-23T07:13:02;0.10;;;0.10;;
20076;SDS011;12348;42.710;23.378;2024-02-23T07:15:31;0.20;;;0.20;;
20076;SDS011;12348;42.710;23.378;2024-02-23T07:17:58;0.27;;;0.27;;
20076;SDS011;12348;42.710;23.378;2024-02-23T07:20:24;0.30;;;0.30;;
20076;SDS011;12348;42.710;23.378;2024-02-23T07:22:51;0.20;;;0.20;;
20076;SDS011;12348;42.710;23.378;2024-02-23T07:25:18;0.27;;;0.27;;
20076;SDS011;12348;42.710;23.378;2024-02-23T07:27:46;1.70;;;1.30;;
20076;SDS011;12348;42.710;23.378;2024-02-23T07:30:14;0.57;;;0.57;;
20076;SDS011;12348;42.710;23.378;2024-02-23T07:32:43;4.40;;;0.53;;
20076;SDS011;12348;42.710;23.378;2024-02-23T07:35:10;0.20;;;0.20;;
20076;SDS011;12348;42.710;23.378;2024-02-23T07:37:37;0.10;;;0.10;;
20076;SDS011;12348;42.710;23.378;2024-02-23T07:40:06;0.27;;;0.27;;
20076;SDS011;12348;42.710;23.378;2024-02-23T07:42:33;0.13;;;0.13;;
20076;SDS011;12348;42.710;23.378;2024-02-23T07:45:01;0.00;;;0.00;;
20076;SDS011;12348;42.710;23.378;2024-02-23T07:47:29;0.10;;;0.10;;
20076;SDS011;12348;42.710;23.378;2024-02-23T07:49:58;0.00;;;0.00;;
20076;SDS011;12348;42.710;23.378;2024-02-23T07:52:25;0.00;;;0.00;;
20076;SDS011;12348;42.710;23.378;2024-02-23T07:54:52;0.00;;;0.00;;
20076;SDS011;12348;42.710;23.378;2024-02-23T07:57:19;7.70;;;3.47;;
20076;SDS011;12348;42.710;23.378;2024-02-23T07:59:45;5.77;;;3.20;;
20076;SDS011;12348;42.710;23.378;2024-02-23T08:02:12;8.50;;;3.43;;
20076;SDS011;12348;42.710;23.378;2024-02-23T08:04:39;10.00;;;4.07;;
20076;SDS011;12348;42.710;23.378;2024-02-23T08:07:08;9.17;;;4.63;;
20076;SDS011;12348;42.710;23.378;2024-02-23T08:09:35;7.90;;;4.03;;
20076;SDS011;12348;42.710;23.378;2024-02-23T08:12:02;6.30;;;4.20;;
20076;SDS011;12348;42.710;23.378;2024-02-23T08:14:29;7.57;;;3.93;;
20076;SDS011;12348;42.710;23.378;2024-02-23T08:16:55;9.13;;;3.87;;
20076;SDS011;12348;42.710;23.378;2024-02-23T08:19:22;14.53;;;4.90;;
20076;SDS011;12348;42.710;23.378;2024-02-23T08:21:49;10.07;;;4.33;;
20076;SDS011;12348;42.710;23.378;2024-02-23T08:24:17;8.77;;;4.30;;
20076;SDS011;12348;42.710;23.378;2024-02-23T08:26:43;9.03;;;4.83;;
20076;SDS011;12348;42.710;23.378;2024-02-23T08:29:13;8.70;;;4.40;;
20076;SDS011;12348;42.710;23.378;2024-02-23T08:31:40;9.80;;;4.60;;
20076;SDS011;12348;42.710;23.378;2024-02-23T08:34:07;10.17;;;5.00;;
20076;SDS011;12348;42.710;23.378;2024-02-23T08:36:33;13.30;;;5.37;;
20076;SDS011;12348;42.710;23.378;2024-02-23T08:39:01;6.20;;;3.70;;
20076;SDS011;12348;42.710;23.378;2024-02-23T08:41:29;6.93;;;3.97;;
20076;SDS011;12348;42.710;23.378;2024-02-23T08:43:56;8.27;;;3.53;;
20076;SDS011;12348;42.710;23.378;2024-02-23T08:46:23;6.63;;;3.60;;
20076;SDS011;12348;42.710;23.378;2024-02-23T08:48:49;6.87;;;3.37;;
20076;SDS011;12348;42.710;23.378;2024-02-23T08:51:16;9.33;;;3.90;;
20076;SDS011;12348;42.710;23.378;2024-02-23T08:53:43;7.33;;;3.80;;
20076;SDS011;12348;42.710;23.378;2024-02-23T08:56:09;6.60;;;3.60;;
20076;SDS011;12348;42.710;23.378;2024-02-23T08:58:39;7.50;;;4.57;;
20076;SDS011;12348;42.710;23.378;2024-02-23T09:01:07;7.50;;;3.97;;
20076;SDS011;12348;42.710;23.378;2024-02-23T09:03:34;7.70;;;3.77;;
20076;SDS011;12348;42.710;23.378;2024-02-23T09:06:01;6.63;;;3.73;;
20076;SDS011;12348;42.710;23.378;2024-02-23T09:08:28;5.10;;;3.37;;
20076;SDS011;12348;42.710;23.378;2024-02-23T09:10:56;7.53;;;4.07;;
20076;SDS011;12348;42.710;23.378;2024-02-23T09:13:23;8.53;;;4.07;;
20076;SDS011;12348;42.710;23.378;2024-02-23T09:15:53;10.77;;;3.10;;
20076;SDS011;12348;42.710;23.378;2024-02-23T09:18:19;5.97;;;2.77;;
20076;SDS011;12348;42.710;23.378;2024-02-23T09:20:46;5.37;;;2.10;;
20076;SDS011;12348;42.710;23.378;2024-02-23T09:23:13;4.43;;;2.40;;
20076;SDS011;12348;42.710;23.378;2024-02-23T09:25:39;6.23;;;2.67;;
20076;SDS011;12348;42.710;23.378;2024-02-23T09:28:06;3.33;;;2.27;;
20076;SDS011;12348;42.710;23.378;2024-02-23T09:30:36;4.97;;;2.27;;
20076;SDS011;12348;42.710;23.378;2024-02-23T09:33:05;2.83;;;1.73;;
20076;SDS011;12348;42.710;23.378;2024-02-23T09:35:31;2.90;;;2.03;;
20076;SDS011;12348;42.710;23.378;2024-02-23T09:37:58;2.50;;;2.23;;
20076;SDS011;12348;42.710;23.378;2024-02-23T09:40:25;5.47;;;2.40;;
20076;SDS011;12348;42.710;23.378;2024-02-23T09:42:55;4.33;;;2.80;;
20076;SDS011;12348;42.710;23.378;2024-02-23T09:45:22;3.90;;;2.27;;
20076;SDS011;12348;42.710;23.378;2024-02-23T09:47:50;6.37;;;2.57;;
20076;SDS011;12348;42.710;23.378;2024-02-23T09:50:19;8.33;;;3.47;;
20076;SDS011;12348;42.710;23.378;2024-02-23T09:52:48;4.83;;;2.00;;
20076;SDS011;12348;42.710;23.378;2024-02-23T09:55:16;5.23;;;1.73;;
20076;SDS011;12348;42.710;23.378;2024-02-23T09:57:46;4.07;;;1.90;;
20076;SDS011;12348;42.710;23.378;2024-02-23T10:00:15;3.53;;;2.10;;
20076;SDS011;12348;42.710;23.378;2024-02-23T10:02:43;2.87;;;1.70;;
20076;SDS011;12348;42.710;23.378;2024-02-23T10:05:10;4.10;;;2.17;;
20076;SDS011;12348;42.710;23.378;2024-02-23T10:07:39;4.93;;;2.37;;
20076;SDS011;12348;42.710;23.378;2024-02-23T10:10:06;5.77;;;3.00;;
20076;SDS011;12348;42.710;23.378;2024-02-23T10:12:36;4.93;;;3.07;;
20076;SDS011;12348;42.710;23.378;2024-02-23T10:15:03;7.13;;;4.10;;
20076;SDS011;12348;42.710;23.378;2024-02-23T10:17:30;2.27;;;1.40;;
20076;SDS011;12348;42.710;23.378;2024-02-23T10:19:56;4.80;;;2.90;;
20076;SDS011;12348;42.710;23.378;2024-02-23T10:22:23;5.77;;;2.57;;
20076;SDS011;12348;42.710;23.378;2024-02-23T10:24:54;3.33;;;1.57;;
20076;SDS011;12348;42.710;23.378;2024-02-23T10:27:20;1.93;;;1.50;;
20076;SDS011;12348;42.710;23.378;2024-02-23T10:29:49;2.43;;;2.10;;
20076;SDS011;12348;42.710;23.378;2024-02-23T10:32:16;3.27;;;1.90;;
20076;SDS011;12348;42.710;23.378;2024-02-23T10:34:45;4.83;;;1.40;;
20076;SDS011;12348;42.710;23.378;2024-02-23T10:37:14;1.83;;;1.40;;
20076;SDS011;12348;42.710;23.378;2024-02-23T10:39:41;2.30;;;1.37;;
20076;SDS011;12348;42.710;23.378;2024-02-23T10:42:10;2.67;;;1.60;;
20076;SDS011;12348;42.710;23.378;2024-02-23T10:44:38;4.03;;;1.60;;
20076;SDS011;12348;42.710;23.378;2024-02-23T10:47:06;1.10;;;0.90;;
20076;SDS011;12348;42.710;23.378;2024-02-23T10:49:33;1.70;;;1.00;;
20076;SDS011;12348;42.710;23.378;2024-02-23T10:52:01;1.80;;;1.40;;
20076;SDS011;12348;42.710;23.378;2024-02-23T10:54:29;1.93;;;1.27;;
20076;SDS011;12348;42.710;23.378;2024-02-23T10:56:57;1.57;;;1.00;;
20076;SDS011;12348;42.710;23.378;2024-02-23T10:59:26;1.67;;;1.20;;
20076;SDS011;12348;42.710;23.378;2024-02-23T11:01:54;2.17;;;1.30;;
20076;SDS011;12348;42.710;23.378;2024-02-23T11:04:24;3.07;;;1.20;;
20076;SDS011;12348;42.710;23.378;2024-02-23T11:06:52;2.23;;;1.43;;
20076;SDS011;12348;42.710;23.378;2024-02-23T11:09:21;0.97;;;0.77;;
20076;SDS011;12348;42.710;23.378;2024-02-23T11:11:52;2.30;;;1.57;;
20076;SDS011;12348;42.710;23.378;2024-02-23T11:14:30;1.80;;;0.93;;
20076;SDS011;12348;42.710;23.378;2024-02-23T11:16:58;1.33;;;1.10;;
20076;SDS011;12348;42.710;23.378;2024-02-23T11:19:32;1.10;;;0.80;;
20076;SDS011;12348;42.710;23.378;2024-02-23T11:21:59;1.63;;;1.13;;
20076;SDS011;12348;42.710;23.378;2024-02-23T11:24:28;1.30;;;1.00;;
20076;SDS011;12348;42.710;23.378;2024-02-23T11:26:56;2.33;;;1.10;;
20076;SDS011;12348;42.710;23.378;2024-02-23T11:29:25;2.40;;;0.90;;
20076;SDS011;12348;42.710;23.378;2024-02-23T11:31:54;1.60;;;1.17;;
20076;SDS011;12348;42.710;23.378;2024-02-23T11:34:26;2.20;;;1.00;;
20076;SDS011;12348;42.710;23.378;2024-02-23T11:36:53;1.90;;;0.87;;
20076;SDS011;12348;42.710;23.378;2024-02-23T11:39:21;1.70;;;1.20;;
20076;SDS011;12348;42.710;23.378;2024-02-23T11:41:48;1.67;;;1.30;;
20076;SDS011;12348;42.710;23.378;2024-02-23T11:44:16;1.70;;;1.10;;
20076;SDS011;12348;42.710;23.378;2024-02-23T11:46:43;1.30;;;1.07;;
20076;SDS011;12348;42.710;23.378;2024-02-23T11:49:12;1.53;;;0.90;;
20076;SDS011;12348;42.710;23.378;2024-02-23T11:51:39;0.83;;;0.73;;
20076;SDS011;12348;42.710;23.378;2024-02-23T11:54:06;1.97;;;1.20;;
20076;SDS011;12348;42.710;23.378;2024-02-23T11:56:33;1.17;;;0.90;;
20076;SDS011;12348;42.710;23.378;2024-02-23T11:59:01;1.13;;;1.03;;
20076;SDS011;12348;42.710;23.378;2024-02-23T12:01:29;1.53;;;1.20;;
20076;SDS011;12348;42.710;23.378;2024-02-23T12:03:56;1.60;;;1.03;;
20076;SDS011;12348;42.710;23.378;2024-02-23T12:06:24;1.03;;;1.00;;
20076;SDS011;12348;42.710;23.378;2024-02-23T12:08:54;1.47;;;0.90;;
20076;SDS011;12348;42.710;23.378;2024-02-23T12:11:21;0.83;;;0.83;;
20076;SDS011;12348;42.710;23.378;2024-02-23T12:13:48;2.43;;;1.37;;
20076;SDS011;12348;42.710;23.378;2024-02-23T12:16:16;2.23;;;1.63;;
20076;SDS011;12348;42.710;23.378;2024-02-23T12:18:42;2.07;;;1.17;;
20076;SDS011;12348;42.710;23.378;2024-02-23T12:21:09;1.17;;;0.80;;
20076;SDS011;12348;42.710;23.378;2024-02-23T12:23:41;1.60;;;1.17;;
20076;SDS011;12348;42.710;23.378;2024-02-23T12:26:09;1.00;;;0.97;;
20076;SDS011;12348;42.710;23.378;2024-02-23T12:28:38;0.70;;;0.70;;
20076;SDS011;12348;42.710;23.378;2024-02-23T12:31:05;1.23;;;0.93;;
20076;SDS011;12348;42.710;23.378;2024-02-23T12:33:33;4.60;;;1.40;;
20076;SDS011;12348;42.710;23.378;2024-02-23T12:36:00;1.33;;;0.97;;
20076;SDS011;12348;42.710;23.378;2024-02-23T12:38:28;1.80;;;0.80;;
20076;SDS011;12348;42.710;23.378;2024-02-23T12:40:56;2.57;;;1.00;;
20076;SDS011;12348;42.710;23.378;2024-02-23T12:43:23;1.20;;;0.90;;
20076;SDS011;12348;42.710;23.378;2024-02-23T12:45:50;2.67;;;1.20;;
20076;SDS011;12348;42.710;23.378;2024-02-23T12:48:17;1.70;;;0.93;;
20076;SDS011;12348;42.710;23.378;2024-02-23T12:50:45;0.80;;;0.77;;
20076;SDS011;12348;42.710;23.378;2024-02-23T12:53:29;2.67;;;1.20;;
20076;SDS011;12348;42.710;23.378;2024-02-23T12:56:00;1.40;;;0.97;;
20076;SDS011;12348;42.710;23.378;2024-02-23T12:58:27;1.03;;;0.97;;
20076;SDS011;12348;42.710;23.378;2024-02-23T13:00:54;1.57;;;0.50;;
20076;SDS011;12348;42.710;23.378;2024-02-23T13:03:21;2.67;;;1.60;;
20076;SDS011;12348;42.710;23.378;2024-02-23T13:05:48;4.63;;;2.37;;
20076;SDS011;12348;42.710;23.378;2024-02-23T13:08:15;2.47;;;1.57;;
20076;SDS011;12348;42.710;23.378;2024-02-23T13:10:43;1.73;;;1.63;;
20076;SDS011;12348;42.710;23.378;2024-02-23T13:13:11;2.23;;;1.53;;
20076;SDS011;12348;42.710;23.378;2024-02-23T13:15:38;0.20;;;0.20;;
20076;SDS011;12348;42.710;23.378;2024-02-23T13:18:05;0.10;;;0.10;;
20076;SDS011;12348;42.710;23.378;2024-02-23T13:20:32;0.10;;;0.10;;
20076;SDS011;12348;42.710;23.378;2024-02-23T13:22:59;0.10;;;0.10;;
20076;SDS011;12348;42.710;23.378;2024-02-23T13:25:25;0.10;;;0.10;;
20076;SDS011;12348;42.710;23.378;2024-02-23T13:27:53;0.10;;;0.10;;
20076;SDS011;12348;42.710;23.378;2024-02-23T13:30:21;0.10;;;0.10;;
20076;SDS011;12348;42.710;23.378;2024-02-23T13:32:47;0.10;;;0.10;;
20076;SDS011;12348;42.710;23.378;2024-02-23T13:35:14;0.10;;;0.10;;
20076;SDS011;12348;42.710;23.378;2024-02-23T13:37:42;0.10;;;0.10;;
20076;SDS011;12348;42.710;23.378;2024-02-23T13:40:10;0.53;;;0.53;;
20076;SDS011;12348;42.710;23.378;2024-02-23T13:42:37;0.10;;;0.10;;
20076;SDS011;12348;42.710;23.378;2024-02-23T13:45:05;0.20;;;0.20;;
20076;SDS011;12348;42.710;23.378;2024-02-23T13:47:35;0.40;;;0.40;;
20076;SDS011;12348;42.710;23.378;2024-02-23T13:50:02;0.50;;;0.50;;
20076;SDS011;12348;42.710;23.378;2024-02-23T13:52:29;0.20;;;0.20;;
20076;SDS011;12348;42.710;23.378;2024-02-23T13:54:56;0.30;;;0.30;;
20076;SDS011;12348;42.710;23.378;2024-02-23T13:57:23;0.10;;;0.10;;
20076;SDS011;12348;42.710;23.378;2024-02-23T13:59:49;0.10;;;0.10;;
20076;SDS011;12348;42.710;23.378;2024-02-23T14:02:16;0.10;;;0.10;;
20076;SDS011;12348;42.710;23.378;2024-02-23T14:04:45;0.20;;;0.20;;
20076;SDS011;12348;42.710;23.378;2024-02-23T14:07:12;0.10;;;0.10;;
20076;SDS011;12348;42.710;23.378;2024-02-23T14:09:39;0.20;;;0.20;;
20076;SDS011;12348;42.710;23.378;2024-02-23T14:12:06;0.10;;;0.10;;
20076;SDS011;12348;42.710;23.378;2024-02-23T14:14:33;0.30;;;0.30;;
20076;SDS011;12348;42.710;23.378;2024-02-23T14:17:00;0.67;;;0.67;;
20076;SDS011;12348;42.710;23.378;2024-02-23T14:19:26;0.20;;;0.20;;
20076;SDS011;12348;42.710;23.378;2024-02-23T14:21:54;0.20;;;0.20;;
20076;SDS011;12348;42.710;23.378;2024-02-23T14:24:21;0.20;;;0.20;;
20076;SDS011;12348;42.710;23.378;2024-02-23T14:26:48;0.20;;;0.20;;
20076;SDS011;12348;42.710;23.378;2024-02-23T14:29:14;0.30;;;0.30;;
20076;SDS011;12348;42.710;23.378;2024-02-23T14:31:42;0.20;;;0.20;;
20076;SDS011;12348;42.710;23.378;2024-02-23T14:34:09;0.23;;;0.23;;